Time;durP1;ratioP1;P1;durP2;ratioP2;P2;SDS_P1;SDS_P2;PMS_P1;PMS_P2;Temp;Humidity;BMP_temperature;BMP_pressure;BME280_temperature;BME280_humidity;BME280_pressure;Samples;Min_cycle;Max_cycle;Signal;HPM_P1;HPM_P2
2023/01/23 00:01:33;;;;;;;8.73;2.20;;;9.70;99.90;;;;;;5064470;28;20059;-78
2023/01/23 00:04:02;;;;;;;4.22;1.63;;;9.60;99.90;;;;;;5061270;28;20701;-78
2023/01/23 00:06:30;;;;;;;5.68;2.10;;;9.60;99.90;;;;;;5065579;28;20094;-76
2023/01/23 00:08:58;;;;;;;8.13;1.73;;;9.60;99.90;;;;;;5059981;28;20161;-77
2023/01/23 00:11:28;;;;;;;2.85;1.75;;;9.60;99.90;;;;;;5064805;28;20760;-78
2023/01/23 00:13:57;;;;;;;4.85;1.65;;;9.60;99.90;;;;;;5057521;28;20044;-78
2023/01/23 00:16:27;;;;;;;6.07;1.85;;;9.60;99.90;;;;;;5064416;28;20040;-77
2023/01/23 00:18:55;;;;;;;4.95;3.15;;;9.60;99.90;;;;;;5056891;28;20387;-76
2023/01/23 00:21:25;;;;;;;4.50;2.10;;;9.70;99.90;;;;;;5061353;28;20125;-78
2023/01/23 00:23:55;;;;;;;4.32;1.80;;;9.70;99.90;;;;;;5063099;28;20049;-79
2023/01/23 00:26:26;;;;;;;7.35;2.25;;;9.70;99.90;;;;;;5062756;28;20052;-75
2023/01/23 00:28:54;;;;;;;5.22;2.13;;;9.70;99.90;;;;;;5047877;28;20484;-77
2023/01/23 00:31:24;;;;;;;5.95;1.58;;;9.70;99.90;;;;;;5068817;28;20040;-77
2023/01/23 00:33:55;;;;;;;5.75;2.60;;;9.70;99.90;;;;;;5065606;28;20076;-78
2023/01/23 00:36:24;;;;;;;3.85;1.80;;;9.70;99.90;;;;;;5068421;28;20045;-77
2023/01/23 00:38:54;;;;;;;3.85;2.50;;;9.70;99.90;;;;;;5065076;28;20049;-75
2023/01/23 00:41:22;;;;;;;2.95;1.45;;;9.70;99.90;;;;;;5068294;28;20064;-78
2023/01/23 00:43:51;;;;;;;4.38;1.55;;;9.70;99.90;;;;;;5067604;28;20040;-77
2023/01/23 00:46:19;;;;;;;2.15;1.70;;;9.70;99.90;;;;;;5069084;28;20388;-78
2023/01/23 00:48:47;;;;;;;3.90;1.80;;;9.70;99.90;;;;;;5067378;28;20037;-77
2023/01/23 00:51:15;;;;;;;5.43;1.92;;;9.70;99.90;;;;;;5068770;28;20347;-77
2023/01/23 00:53:43;;;;;;;7.70;1.88;;;9.80;99.90;;;;;;5062258;28;20059;-78
2023/01/23 00:56:11;;;;;;;3.17;1.20;;;9.80;99.90;;;;;;5064047;28;20072;-78
2023/01/23 00:58:40;;;;;;;6.43;1.42;;;9.80;99.90;;;;;;5066188;28;20507;-78
2023/01/23 01:01:10;;;;;;;2.95;1.65;;;9.80;99.90;;;;;;5068142;28;20037;-78
2023/01/23 01:03:38;;;;;;;3.28;1.20;;;9.80;99.90;;;;;;5066220;28;20123;-78
2023/01/23 01:06:07;;;;;;;3.33;1.73;;;9.80;99.90;;;;;;5066241;28;20071;-78
2023/01/23 01:08:35;;;;;;;2.65;1.20;;;9.80;99.90;;;;;;5068555;28;20064;-78
2023/01/23 01:11:03;;;;;;;1.75;0.95;;;9.80;99.90;;;;;;5067373;28;20040;-78
2023/01/23 01:13:31;;;;;;;2.28;2.00;;;9.80;99.90;;;;;;5067172;28;20037;-79
2023/01/23 01:16:00;;;;;;;3.45;2.10;;;9.80;99.90;;;;;;5062188;28;20049;-78
2023/01/23 01:18:28;;;;;;;3.78;1.15;;;9.80;99.90;;;;;;5045849;28;20105;-79
2023/01/23 01:20:56;;;;;;;3.83;1.83;;;9.70;99.90;;;;;;5065205;28;20055;-78
2023/01/23 01:23:24;;;;;;;2.35;1.00;;;9.70;99.90;;;;;;5065113;28;20540;-76
2023/01/23 01:25:52;;;;;;;5.00;1.58;;;9.80;99.90;;;;;;5066357;28;20036;-78
2023/01/23 01:28:20;;;;;;;2.28;1.20;;;9.80;99.90;;;;;;5067139;28;20053;-78
2023/01/23 01:30:47;;;;;;;5.65;1.60;;;9.90;99.90;;;;;;5068914;28;20295;-78
2023/01/23 01:33:15;;;;;;;3.55;1.77;;;9.80;99.90;;;;;;5048456;28;20090;-77
2023/01/23 01:35:43;;;;;;;3.35;1.90;;;9.90;99.90;;;;;;5066853;28;20055;-77
2023/01/23 01:38:10;;;;;;;3.78;1.80;;;9.90;99.90;;;;;;5059242;28;20036;-78
2023/01/23 01:40:38;;;;;;;4.55;1.85;;;9.90;99.90;;;;;;5045936;28;20760;-78
2023/01/23 01:43:16;;;;;;;5.25;1.85;;;9.80;99.90;;;;;;5063895;28;20040;-77
2023/01/23 01:46:05;;;;;;;3.55;1.10;;;9.90;99.90;;;;;;5059980;28;20041;-78
2023/01/23 01:48:47;;;;;;;5.47;1.85;;;9.80;99.90;;;;;;5062197;28;20114;-78
2023/01/23 01:51:42;;;;;;;4.68;1.20;;;9.90;99.90;;;;;;5064919;28;20106;-78
2023/01/23 01:54:22;;;;;;;4.65;1.80;;;9.90;99.90;;;;;;5063079;28;20063;-78
2023/01/23 01:57:00;;;;;;;5.15;1.30;;;10.00;99.90;;;;;;5064130;28;20443;-77
2023/01/23 01:59:32;;;;;;;3.38;1.58;;;10.00;99.90;;;;;;5057393;28;20036;-76
2023/01/23 02:02:05;;;;;;;4.93;2.15;;;10.00;99.90;;;;;;5069427;28;20127;-77
2023/01/23 02:04:35;;;;;;;3.47;1.48;;;10.00;99.90;;;;;;5067968;28;20048;-77
2023/01/23 02:07:10;;;;;;;4.60;1.20;;;10.00;99.90;;;;;;5067617;28;20092;-77
2023/01/23 02:09:38;;;;;;;2.25;1.27;;;10.00;99.90;;;;;;5063680;28;20043;-77
2023/01/23 02:12:05;;;;;;;2.03;1.30;;;9.90;99.90;;;;;;5067637;28;20074;-77
2023/01/23 02:14:33;;;;;;;3.95;1.50;;;9.90;99.90;;;;;;5068066;28;20077;-78
2023/01/23 02:17:02;;;;;;;5.70;2.58;;;9.90;99.90;;;;;;5067339;28;20052;-78
2023/01/23 02:19:38;;;;;;;2.67;1.55;;;9.90;99.90;;;;;;5055920;28;20036;-76
2023/01/23 02:22:23;;;;;;;5.50;1.30;;;9.90;99.90;;;;;;5067755;28;20135;-76
2023/01/23 02:25:06;;;;;;;10.02;1.35;;;9.90;99.90;;;;;;5062775;28;20441;-77
2023/01/23 02:27:33;;;;;;;3.03;1.30;;;9.90;99.90;;;;;;5066806;28;20418;-75
2023/01/23 02:30:02;;;;;;;3.40;1.75;;;9.80;99.90;;;;;;5066767;28;20049;-77
2023/01/23 02:32:31;;;;;;;5.93;1.63;;;9.90;99.90;;;;;;5064465;28;20049;-78
2023/01/23 02:35:03;;;;;;;2.17;1.38;;;9.90;99.90;;;;;;5046723;28;20053;-77
2023/01/23 02:37:33;;;;;;;3.15;1.30;;;9.80;99.90;;;;;;5064845;28;20040;-77
2023/01/23 02:40:03;;;;;;;4.05;1.10;;;9.80;99.90;;;;;;5066609;28;20045;-78
2023/01/23 02:42:34;;;;;;;9.40;1.95;;;9.80;99.90;;;;;;5056535;28;20045;-78
2023/01/23 02:45:06;;;;;;;3.78;1.85;;;9.80;99.90;;;;;;5062699;28;20371;-77
2023/01/23 02:47:34;;;;;;;1.95;1.15;;;9.70;99.90;;;;;;5045858;28;20037;-76
2023/01/23 02:50:01;;;;;;;1.73;1.45;;;9.70;99.90;;;;;;5043186;28;20037;-78
2023/01/23 02:52:30;;;;;;;3.83;1.50;;;9.70;99.90;;;;;;5056508;28;20546;-77
2023/01/23 02:54:58;;;;;;;2.05;1.00;;;9.70;99.90;;;;;;5066711;28;20074;-77
2023/01/23 02:57:25;;;;;;;1.48;1.02;;;9.70;99.90;;;;;;5064011;28;20202;-76
2023/01/23 03:02:38;;;;;;;1.50;1.10;;;9.70;99.90;;;;;;5062679;28;20478;-78
2023/01/23 03:05:09;;;;;;;2.10;1.27;;;9.70;99.90;;;;;;5061609;28;20400;-78
2023/01/23 03:07:36;;;;;;;2.65;1.40;;;9.70;99.90;;;;;;5061627;28;20041;-78
2023/01/23 03:10:06;;;;;;;3.88;1.27;;;9.60;99.90;;;;;;5064683;28;20041;-77
2023/01/23 03:12:34;;;;;;;1.15;1.02;;;9.60;99.90;;;;;;5066448;28;20044;-77
2023/01/23 03:15:04;;;;;;;3.05;1.15;;;9.60;99.90;;;;;;5066799;28;20048;-76
2023/01/23 03:17:35;;;;;;;2.05;1.13;;;9.60;99.90;;;;;;5061940;28;20049;-79
2023/01/23 03:20:04;;;;;;;6.88;2.75;;;9.70;99.90;;;;;;5065701;28;20043;-78
2023/01/23 03:22:32;;;;;;;1.60;1.27;;;9.60;99.90;;;;;;5065093;28;20829;-77
2023/01/23 03:25:00;;;;;;;3.08;1.20;;;9.60;99.90;;;;;;5049029;28;20044;-77
2023/01/23 03:27:28;;;;;;;8.73;1.98;;;9.60;99.90;;;;;;5045921;28;20052;-76
2023/01/23 03:30:15;;;;;;;3.83;1.40;;;9.60;99.90;;;;;;5044714;28;20063;-77
2023/01/23 03:32:44;;;;;;;3.08;1.02;;;9.60;99.90;;;;;;5060485;28;20474;-77
2023/01/23 03:35:15;;;;;;;1.73;1.30;;;9.60;99.90;;;;;;5066456;28;20052;-77
2023/01/23 03:37:43;;;;;;;6.88;1.30;;;9.50;99.90;;;;;;5050779;28;20087;-77
2023/01/23 03:43:05;;;;;;;3.30;1.15;;;9.50;99.90;;;;;;5066931;28;20045;-77
2023/01/23 03:45:35;;;;;;;5.95;2.22;;;9.40;99.90;;;;;;5050100;28;20044;-76
2023/01/23 03:48:03;;;;;;;2.25;1.00;;;9.40;99.90;;;;;;5067114;28;20036;-77
2023/01/23 03:50:31;;;;;;;2.03;1.38;;;9.40;99.90;;;;;;5067095;28;20113;-76
2023/01/23 03:52:59;;;;;;;2.42;1.00;;;9.40;99.90;;;;;;5068390;28;20501;-77
2023/01/23 03:55:26;;;;;;;1.40;0.95;;;9.40;99.90;;;;;;5050585;28;20494;-77
2023/01/23 03:57:54;;;;;;;6.25;1.23;;;9.40;99.90;;;;;;5050317;28;20541;-78
2023/01/23 04:00:28;;;;;;;1.55;1.10;;;9.40;99.90;;;;;;5067375;28;20480;-78
2023/01/23 04:03:00;;;;;;;1.70;0.80;;;9.40;99.90;;;;;;5066884;28;20359;-77
2023/01/23 04:05:28;;;;;;;2.92;1.20;;;9.40;99.90;;;;;;5050494;28;20517;-78
2023/01/23 04:07:56;;;;;;;0.82;0.77;;;9.40;99.90;;;;;;5049944;28;20101;-77
2023/01/23 04:10:24;;;;;;;2.78;1.02;;;9.40;99.90;;;;;;5066661;28;20531;-78
2023/01/23 04:12:54;;;;;;;1.27;1.10;;;9.40;99.90;;;;;;5066662;28;20036;-76
2023/01/23 04:15:22;;;;;;;6.97;1.40;;;9.40;99.90;;;;;;5066891;28;20037;-78
2023/01/23 04:17:55;;;;;;;1.77;1.30;;;9.40;99.90;;;;;;5066861;28;20037;-77
2023/01/23 04:20:24;;;;;;;3.30;1.50;;;9.40;99.90;;;;;;5066926;28;20041;-77
2023/01/23 04:22:52;;;;;;;1.80;0.98;;;9.30;99.90;;;;;;5066495;28;20065;-77
2023/01/23 04:25:23;;;;;;;1.25;0.98;;;9.30;99.90;;;;;;5049902;28;20049;-76
2023/01/23 04:27:51;;;;;;;2.75;0.90;;;9.30;99.90;;;;;;5067917;28;20147;-77
2023/01/23 04:30:19;;;;;;;2.47;1.15;;;9.20;99.90;;;;;;5067079;28;20136;-77
2023/01/23 04:32:47;;;;;;;2.25;1.23;;;9.20;99.90;;;;;;5066791;28;20048;-77
2023/01/23 04:35:17;;;;;;;1.33;1.10;;;9.20;99.90;;;;;;5066678;28;20043;-77
2023/01/23 04:37:44;;;;;;;2.42;0.95;;;9.20;99.90;;;;;;5049365;28;20041;-78
2023/01/23 04:40:12;;;;;;;2.60;1.10;;;9.20;99.90;;;;;;5068087;28;20052;-77
2023/01/23 04:42:50;;;;;;;2.58;1.10;;;9.10;99.90;;;;;;5066861;28;20045;-77
2023/01/23 04:45:37;;;;;;;;;;;9.10;99.90;;;;;;5050484;28;20051;-77
2023/01/23 04:48:40;;;;;;;2.47;1.15;;;9.10;99.90;;;;;;5045374;28;20306;-77
2023/01/23 04:51:08;;;;;;;2.90;0.98;;;9.10;99.90;;;;;;5062921;28;20139;-77
2023/01/23 04:53:37;;;;;;;2.30;1.08;;;9.10;99.90;;;;;;5046617;28;20057;-77
2023/01/23 04:56:07;;;;;;;2.63;1.75;;;9.10;99.90;;;;;;5029638;28;20055;-77
2023/01/23 04:58:35;;;;;;;1.08;0.90;;;9.00;99.90;;;;;;5063226;28;20111;-77
2023/01/23 05:01:06;;;;;;;4.07;2.20;;;9.00;99.90;;;;;;5080071;28;20041;-77
2023/01/23 05:03:36;;;;;;;3.00;1.42;;;9.00;99.90;;;;;;5066775;28;20348;-77
2023/01/23 05:06:03;;;;;;;1.33;1.13;;;9.00;99.90;;;;;;5066488;28;20429;-77
2023/01/23 05:08:32;;;;;;;2.35;1.17;;;9.00;99.90;;;;;;5049538;28;20045;-77
2023/01/23 05:11:10;;;;;;;2.00;1.05;;;9.00;99.90;;;;;;5066431;28;20064;-77
2023/01/23 05:13:38;;;;;;;1.98;1.23;;;8.90;99.90;;;;;;5049336;28;20059;-77
2023/01/23 05:16:06;;;;;;;7.65;1.20;;;9.00;99.90;;;;;;5053063;28;20047;-77
2023/01/23 05:18:52;;;;;;;1.13;0.93;;;8.90;99.90;;;;;;5070167;28;20047;-77
2023/01/23 05:21:21;;;;;;;1.67;1.10;;;8.90;99.90;;;;;;5069763;28;20048;-77
2023/01/23 05:23:48;;;;;;;4.47;1.23;;;8.90;99.90;;;;;;5069291;28;20151;-78
2023/01/23 05:26:19;;;;;;;4.90;2.00;;;8.90;99.90;;;;;;5069970;28;20048;-78
2023/01/23 05:28:47;;;;;;;1.70;1.00;;;8.90;99.90;;;;;;5069833;28;20079;-77
2023/01/23 05:31:14;;;;;;;2.33;1.73;;;8.80;99.90;;;;;;5053268;28;20048;-77
2023/01/23 05:33:57;;;;;;;3.47;1.27;;;8.80;99.90;;;;;;5049245;28;20107;-77
2023/01/23 05:36:24;;;;;;;1.63;0.95;;;8.80;99.90;;;;;;5017075;28;20487;-77
2023/01/23 05:38:54;;;;;;;2.85;1.33;;;8.80;99.90;;;;;;5065997;28;20078;-78
2023/01/23 05:41:26;;;;;;;2.60;1.30;;;8.80;99.90;;;;;;5069572;28;20075;-77
2023/01/23 05:44:13;;;;;;;1.75;1.10;;;8.80;99.90;;;;;;5070780;28;20101;-77
2023/01/23 05:46:54;;;;;;;2.92;1.08;;;8.80;99.90;;;;;;5052559;28;20051;-77
2023/01/23 05:49:22;;;;;;;1.25;0.90;;;8.80;99.90;;;;;;5069507;28;20063;-77
2023/01/23 05:51:51;;;;;;;2.25;1.13;;;8.70;99.90;;;;;;5068971;28;20157;-77
2023/01/23 05:54:18;;;;;;;2.45;1.15;;;8.70;99.90;;;;;;5069398;28;20131;-77
2023/01/23 05:56:46;;;;;;;2.03;1.15;;;8.70;99.90;;;;;;5069474;28;20470;-77
2023/01/23 05:59:33;;;;;;;2.22;1.65;;;8.60;99.90;;;;;;5069327;28;20080;-77
2023/01/23 06:02:33;;;;;;;3.22;1.20;;;8.60;99.90;;;;;;5047147;28;20060;-77
2023/01/23 06:05:28;;;;;;;5.75;2.38;;;8.60;99.90;;;;;;5068811;28;20096;-77
2023/01/23 06:08:10;;;;;;;3.55;1.17;;;8.60;99.90;;;;;;5070235;28;20055;-78
2023/01/23 06:10:38;;;;;;;2.65;1.40;;;8.50;99.90;;;;;;5068348;28;20044;-77
2023/01/23 06:13:06;;;;;;;2.30;1.30;;;8.50;99.90;;;;;;5068707;28;20036;-78
2023/01/23 06:15:36;;;;;;;2.38;1.42;;;8.50;99.90;;;;;;5069003;28;20178;-77
2023/01/23 06:18:12;;;;;;;2.58;2.08;;;8.50;99.90;;;;;;5052272;28;20074;-78
2023/01/23 06:20:40;;;;;;;4.00;1.30;;;8.50;99.90;;;;;;5070067;28;20135;-77
2023/01/23 06:23:08;;;;;;;2.50;1.40;;;8.50;99.90;;;;;;5035520;28;20059;-77
2023/01/23 06:25:36;;;;;;;8.20;3.65;;;8.50;99.90;;;;;;5051901;28;20072;-78
2023/01/23 06:28:07;;;;;;;8.85;4.72;;;8.60;99.90;;;;;;5051767;28;20121;-77
2023/01/23 06:30:36;;;;;;;20.50;11.13;;;8.50;99.90;;;;;;5068847;28;20044;-78
2023/01/23 06:33:11;;;;;;;36.55;19.10;;;8.50;99.90;;;;;;5068793;28;20048;-77
2023/01/23 06:35:41;;;;;;;40.08;25.38;;;8.50;99.90;;;;;;5068127;28;20056;-77
2023/01/23 06:38:09;;;;;;;22.23;10.48;;;8.50;99.90;;;;;;5068568;28;20044;-78
2023/01/23 06:40:38;;;;;;;7.15;3.63;;;8.50;99.90;;;;;;5052330;28;20394;-77
2023/01/23 06:43:23;;;;;;;5.80;1.70;;;8.60;99.90;;;;;;5037215;28;20832;-77
2023/01/23 06:45:50;;;;;;;3.25;1.55;;;8.70;99.90;;;;;;5067998;28;20044;-77
2023/01/23 06:48:19;;;;;;;2.92;1.20;;;8.80;99.90;;;;;;5051161;28;20059;-77
2023/01/23 06:50:47;;;;;;;2.67;1.75;;;9.00;99.90;;;;;;5068148;28;20040;-77
2023/01/23 06:53:16;;;;;;;4.10;1.85;;;9.40;99.90;;;;;;5067935;28;20056;-76
2023/01/23 06:55:50;;;;;;;2.10;1.45;;;9.70;99.90;;;;;;4983346;28;20053;-77
2023/01/23 06:58:18;;;;;;;2.92;1.35;;;10.20;99.90;;;;;;5032297;28;20056;-78
2023/01/23 07:00:49;;;;;;;4.40;1.63;;;10.40;99.90;;;;;;5067427;28;20059;-78
2023/01/23 07:03:37;;;;;;;3.58;1.80;;;11.10;99.90;;;;;;5061857;28;20050;-77
2023/01/23 07:06:05;;;;;;;2.38;1.27;;;11.70;99.90;;;;;;5063064;28;20139;-76
2023/01/23 07:08:34;;;;;;;4.18;1.70;;;12.30;99.90;;;;;;5065547;28;20399;-75
2023/01/23 07:11:02;;;;;;;4.35;1.63;;;12.90;99.90;;;;;;5063115;28;20060;-74
2023/01/23 07:13:30;;;;;;;2.78;1.60;;;13.80;99.90;;;;;;5064057;28;20106;-74
2023/01/23 07:15:58;;;;;;;2.70;1.65;;;14.60;99.90;;;;;;5058970;28;20390;-74
2023/01/23 07:18:27;;;;;;;2.65;1.63;;;15.10;99.90;;;;;;5056337;28;20056;-75
2023/01/23 07:20:55;;;;;;;1.75;1.10;;;15.40;99.90;;;;;;5047953;28;20037;-75
2023/01/23 07:23:23;;;;;;;2.78;1.08;;;15.80;99.90;;;;;;5067220;28;20055;-73
2023/01/23 07:25:51;;;;;;;3.70;1.23;;;16.20;99.90;;;;;;5062016;28;20044;-73
2023/01/23 07:28:18;;;;;;;2.10;1.10;;;16.40;99.90;;;;;;5040583;28;20056;-72
2023/01/23 07:30:49;;;;;;;2.70;1.35;;;16.40;99.90;;;;;;5074042;28;20094;-74
2023/01/23 07:33:16;;;;;;;3.83;1.55;;;16.10;99.90;;;;;;5065074;28;20044;-73
2023/01/23 07:35:43;;;;;;;3.88;1.80;;;15.90;99.90;;;;;;5062175;28;20037;-72
2023/01/23 07:38:11;;;;;;;4.30;1.70;;;16.40;99.90;;;;;;5073497;28;20055;-72
2023/01/23 07:40:41;;;;;;;3.15;1.60;;;16.10;99.90;;;;;;5065619;28;20139;-74
2023/01/23 07:43:08;;;;;;;2.47;1.52;;;16.10;99.90;;;;;;5066024;28;20111;-73
2023/01/23 07:45:36;;;;;;;3.10;1.40;;;15.40;99.90;;;;;;5065456;28;20047;-73
2023/01/23 07:48:04;;;;;;;5.70;1.52;;;15.20;99.90;;;;;;5064374;28;20394;-73
2023/01/23 07:50:32;;;;;;;7.72;1.92;;;14.80;99.90;;;;;;5066675;28;20068;-73
2023/01/23 07:53:02;;;;;;;3.95;1.90;;;14.20;99.90;;;;;;5065451;28;20124;-72
2023/01/23 07:55:29;;;;;;;3.17;1.67;;;14.00;99.90;;;;;;5064887;28;20092;-72
2023/01/23 07:57:57;;;;;;;5.63;3.72;;;13.90;99.90;;;;;;5063340;28;20573;-75
2023/01/23 08:00:24;;;;;;;4.55;2.80;;;14.40;99.90;;;;;;5063581;28;20056;-72
2023/01/23 08:02:56;;;;;;;8.93;3.88;;;14.50;99.90;;;;;;5065886;28;20064;-72
2023/01/23 08:05:24;;;;;;;8.27;3.60;;;14.50;99.90;;;;;;5048099;28;20068;-75
2023/01/23 08:07:52;;;;;;;7.95;3.95;;;14.30;99.90;;;;;;5065616;28;20058;-74
2023/01/23 08:10:34;;;;;;;10.18;4.50;;;14.30;99.90;;;;;;5063387;28;20544;-76
2023/01/23 08:13:02;;;;;;;7.60;4.38;;;14.30;99.90;;;;;;5038550;28;20750;-75
2023/01/23 08:15:29;;;;;;;8.32;3.97;;;14.30;99.90;;;;;;5050299;28;20119;-73
2023/01/23 08:17:57;;;;;;;7.13;3.53;;;14.20;99.90;;;;;;5065118;28;20037;-73
2023/01/23 08:20:24;;;;;;;4.53;2.40;;;14.20;99.90;;;;;;5066397;28;20126;-73
2023/01/23 08:22:52;;;;;;;5.75;2.72;;;14.10;99.90;;;;;;5066689;28;20064;-73
2023/01/23 08:25:20;;;;;;;5.13;2.70;;;14.10;99.90;;;;;;5066924;28;20041;-72
2023/01/23 08:27:47;;;;;;;4.35;2.30;;;14.00;99.90;;;;;;5049938;28;20410;-72
2023/01/23 08:30:15;;;;;;;3.33;2.15;;;13.90;99.90;;;;;;5067035;28;20177;-73
2023/01/23 08:32:43;;;;;;;2.85;1.70;;;13.70;99.90;;;;;;5066917;28;20077;-73
2023/01/23 08:35:10;;;;;;;7.43;1.83;;;13.70;99.90;;;;;;5067079;28;20049;-72
2023/01/23 08:37:39;;;;;;;3.13;1.90;;;13.80;99.90;;;;;;5068235;28;20040;-73
2023/01/23 08:40:08;;;;;;;2.80;1.10;;;13.70;99.90;;;;;;5034220;28;20049;-71
2023/01/23 08:42:35;;;;;;;3.40;1.40;;;13.50;99.90;;;;;;5066881;28;20048;-74
2023/01/23 08:45:03;;;;;;;4.00;1.60;;;13.40;99.90;;;;;;5068575;28;20105;-73
2023/01/23 08:47:35;;;;;;;4.03;2.42;;;13.50;99.90;;;;;;5031596;28;20059;-73
2023/01/23 08:50:04;;;;;;;2.50;1.55;;;13.40;99.90;;;;;;5067084;28;20032;-74
2023/01/23 08:52:34;;;;;;;3.53;2.13;;;13.40;99.90;;;;;;5070642;28;20123;-73
2023/01/23 08:55:02;;;;;;;2.53;1.30;;;13.60;99.90;;;;;;5070334;28;20040;-72
2023/01/23 08:57:29;;;;;;;1.33;1.20;;;13.70;99.90;;;;;;5053293;28;20048;-72
2023/01/23 08:59:57;;;;;;;3.03;2.13;;;13.60;99.90;;;;;;5068256;28;20044;-73
2023/01/23 09:02:24;;;;;;;11.45;2.72;;;13.70;99.90;;;;;;5055223;28;20063;-71
2023/01/23 09:04:52;;;;;;;11.40;2.33;;;13.90;99.90;;;;;;5070641;28;20051;-74
2023/01/23 09:07:19;;;;;;;1.58;1.00;;;13.80;99.90;;;;;;5071239;28;20066;-74
2023/01/23 09:09:47;;;;;;;2.42;1.13;;;14.10;99.90;;;;;;5070048;28;20040;-73
2023/01/23 09:12:15;;;;;;;2.47;1.58;;;14.00;99.90;;;;;;5070189;28;20048;-74
2023/01/23 09:14:43;;;;;;;3.20;1.23;;;14.10;99.90;;;;;;5070994;28;20045;-72
2023/01/23 09:17:11;;;;;;;4.53;1.50;;;14.10;99.90;;;;;;5066606;28;20422;-73
2023/01/23 09:19:38;;;;;;;3.30;1.40;;;14.00;99.90;;;;;;5057488;28;20049;-73
2023/01/23 09:22:08;;;;;;;2.50;1.38;;;14.00;99.90;;;;;;5065984;28;21091;-73
2023/01/23 09:24:36;;;;;;;4.50;1.60;;;14.30;99.90;;;;;;5069473;28;20048;-73
2023/01/23 09:27:04;;;;;;;3.00;1.40;;;14.70;99.90;;;;;;5069059;28;20454;-73
2023/01/23 09:29:31;;;;;;;4.32;1.48;;;14.50;99.90;;;;;;5034126;28;20049;-73
2023/01/23 09:31:59;;;;;;;8.52;3.30;;;14.30;99.90;;;;;;5050864;28;20114;-72
2023/01/23 09:34:28;;;;;;;1.75;1.30;;;14.40;99.90;;;;;;5069188;28;20149;-73
2023/01/23 09:36:56;;;;;;;1.88;1.10;;;14.30;99.90;;;;;;5070188;28;20060;-73
2023/01/23 09:39:23;;;;;;;2.47;1.40;;;14.20;99.90;;;;;;5069507;28;20036;-74
2023/01/23 09:41:50;;;;;;;3.95;1.20;;;14.40;99.90;;;;;;5069635;28;20129;-73
2023/01/23 09:44:24;;;;;;;3.13;1.50;;;14.30;99.90;;;;;;5071072;28;20098;-73
2023/01/23 09:47:01;;;;;;;3.78;1.63;;;14.10;99.90;;;;;;5070189;28;20048;-73
2023/01/23 09:49:37;;;;;;;6.22;2.00;;;14.10;99.90;;;;;;5069637;28;20363;-73
2023/01/23 09:52:18;;;;;;;5.85;2.03;;;14.00;99.90;;;;;;5069553;28;20402;-73
2023/01/23 09:54:48;;;;;;;2.67;1.52;;;13.70;99.90;;;;;;5053087;28;20110;-72
2023/01/23 09:57:32;;;;;;;5.50;1.75;;;13.60;99.90;;;;;;5053199;28;20057;-73
2023/01/23 10:00:24;;;;;;;2.30;1.30;;;13.60;99.90;;;;;;5069210;28;20153;-72
2023/01/23 10:02:53;;;;;;;7.18;3.88;;;13.50;99.90;;;;;;5070351;28;20052;-73
2023/01/23 10:05:30;;;;;;;3.40;1.30;;;13.80;99.90;;;;;;5068219;28;20040;-73
2023/01/23 10:08:31;;;;;;;4.32;2.22;;;14.20;99.90;;;;;;5069283;28;20495;-73
2023/01/23 10:11:23;;;;;;;3.25;1.85;;;14.70;99.90;;;;;;5070541;28;20159;-72
2023/01/23 10:14:14;;;;;;;2.17;1.35;;;14.90;99.90;;;;;;5070072;28;20135;-73
2023/01/23 10:17:15;;;;;;;1.65;1.08;;;14.90;99.90;;;;;;5069210;28;20056;-73
2023/01/23 10:20:13;;;;;;;1.23;0.90;;;14.60;99.90;;;;;;5052153;28;20060;-73
2023/01/23 10:22:55;;;;;;;0.90;0.70;;;14.30;99.90;;;;;;5068955;28;20045;-73
2023/01/23 10:25:28;;;;;;;1.42;0.90;;;14.20;99.90;;;;;;5069112;28;20152;-74
2023/01/23 10:28:01;;;;;;;2.97;1.42;;;14.20;99.90;;;;;;5069863;28;20139;-73
2023/01/23 10:30:33;;;;;;;4.35;2.10;;;14.20;99.90;;;;;;5068859;28;20100;-73
2023/01/23 10:33:12;;;;;;;1.58;1.00;;;14.20;99.90;;;;;;5052002;28;20044;-73
2023/01/23 10:35:49;;;;;;;4.47;2.22;;;14.40;99.90;;;;;;5068698;28;20048;-74
2023/01/23 10:38:41;;;;;;;2.85;1.30;;;14.70;99.90;;;;;;5068738;28;20062;-74
2023/01/23 10:41:13;;;;;;;4.30;1.60;;;14.80;99.90;;;;;;5069610;28;20056;-74
2023/01/23 10:43:42;;;;;;;5.32;1.80;;;14.80;99.90;;;;;;5068517;28;20044;-73
2023/01/23 10:46:14;;;;;;;4.22;2.17;;;15.20;99.90;;;;;;5068586;28;20048;-73
2023/01/23 10:48:44;;;;;;;6.95;2.63;;;15.20;99.90;;;;;;5069658;28;20041;-73
2023/01/23 10:51:32;;;;;;;4.57;2.53;;;15.00;99.90;;;;;;5069779;28;20144;-73
2023/01/23 10:54:13;;;;;;;3.85;2.30;;;14.80;99.90;;;;;;5068233;28;20047;-73
2023/01/23 10:56:59;;;;;;;4.22;1.40;;;14.60;99.90;;;;;;5068915;28;20130;-73
2023/01/23 11:00:03;;;;;;;4.65;1.00;;;14.60;99.90;;;;;;5068201;28;20449;-73
2023/01/23 11:02:36;;;;;;;2.10;1.17;;;14.70;99.90;;;;;;5055084;28;20106;-73
2023/01/23 11:05:33;;;;;;;2.20;1.35;;;14.50;99.90;;;;;;5052235;28;20041;-73
2023/01/23 11:08:27;;;;;;;4.05;2.33;;;14.00;99.90;;;;;;5067538;28;20052;-73
2023/01/23 11:11:15;;;;;;;1.85;1.13;;;13.90;99.90;;;;;;5068872;28;20121;-73
2023/01/23 11:13:47;;;;;;;2.60;1.05;;;14.10;99.90;;;;;;5064648;28;20669;-73
2023/01/23 11:16:21;;;;;;;3.22;1.95;;;14.00;99.90;;;;;;5069218;28;20178;-73
2023/01/23 11:18:56;;;;;;;2.90;1.63;;;13.70;99.90;;;;;;5068733;28;20439;-74
2023/01/23 11:21:31;;;;;;;2.10;1.48;;;13.90;99.90;;;;;;5046947;28;20364;-74
2023/01/23 11:24:24;;;;;;;2.27;1.50;;;14.20;99.90;;;;;;5065631;28;20139;-73
2023/01/23 11:27:19;;;;;;;3.13;1.08;;;14.40;99.90;;;;;;5062927;28;20127;-74
2023/01/23 11:30:19;;;;;;;3.60;1.55;;;14.40;99.90;;;;;;5066753;28;20048;-74
2023/01/23 11:32:57;;;;;;;1.95;1.25;;;14.40;99.90;;;;;;5034292;28;20056;-74
2023/01/23 11:35:47;;;;;;;1.77;1.20;;;14.40;99.90;;;;;;5049856;28;20044;-72
2023/01/23 11:38:17;;;;;;;3.47;1.20;;;14.40;99.90;;;;;;5064935;28;20052;-74
2023/01/23 11:40:53;;;;;;;2.75;1.70;;;14.40;99.90;;;;;;5058868;28;20047;-72
2023/01/23 11:43:21;;;;;;;2.25;1.60;;;14.50;99.90;;;;;;5049703;28;20418;-73
2023/01/23 11:46:11;;;;;;;2.67;1.20;;;14.60;99.90;;;;;;5065895;28;20040;-72
2023/01/23 11:48:58;;;;;;;2.92;1.63;;;14.50;99.90;;;;;;5050003;28;20036;-71
2023/01/23 11:51:46;;;;;;;2.03;1.10;;;14.60;99.90;;;;;;5068029;28;20061;-72
2023/01/23 11:54:34;;;;;;;2.00;1.27;;;14.50;99.90;;;;;;5063803;28;20487;-72
2023/01/23 11:57:17;;;;;;;5.28;2.10;;;14.40;99.90;;;;;;5068112;28;20406;-73
2023/01/23 11:59:54;;;;;;;4.85;2.67;;;14.40;99.90;;;;;;5045284;28;20059;-74
2023/01/23 12:02:58;;;;;;;4.70;3.17;;;14.40;99.90;;;;;;5036567;28;20066;-71
2023/01/23 12:05:53;;;;;;;2.85;1.50;;;14.40;99.90;;;;;;5059939;28;20047;-71
2023/01/23 12:08:41;;;;;;;8.00;3.47;;;14.40;99.90;;;;;;5066709;28;20037;-72
2023/01/23 12:11:12;;;;;;;7.68;4.30;;;14.20;99.90;;;;;;5066613;28;20131;-72
2023/01/23 12:14:03;;;;;;;7.03;3.05;;;14.00;99.90;;;;;;5064858;28;20662;-74
2023/01/23 12:17:07;;;;;;;5.57;3.70;;;13.80;99.90;;;;;;5061336;28;20514;-75
2023/01/23 12:20:12;;;;;;;3.95;2.30;;;13.70;99.90;;;;;;5044229;28;20053;-73
2023/01/23 12:22:53;;;;;;;42.92;25.25;;;13.90;99.90;;;;;;5057087;28;20056;-73
2023/01/23 12:25:21;;;;;;;3.97;2.30;;;14.20;99.90;;;;;;5059625;28;20100;-75
2023/01/23 12:28:00;;;;;;;3.95;2.10;;;14.40;99.90;;;;;;5051783;28;20503;-73
2023/01/23 12:31:00;;;;;;;8.93;5.70;;;14.50;99.90;;;;;;5063563;28;20037;-73
2023/01/23 12:33:38;;;;;;;37.33;26.42;;;14.40;99.90;;;;;;5057467;28;20052;-72
2023/01/23 12:36:36;;;;;;;11.85;7.43;;;14.50;99.90;;;;;;5052726;28;20044;-73
2023/01/23 12:39:23;;;;;;;5.97;4.05;;;14.40;99.90;;;;;;5069896;28;20040;-74
2023/01/23 12:41:52;;;;;;;6.90;4.53;;;14.10;99.90;;;;;;5067741;28;20102;-72
2023/01/23 12:44:53;;;;;;;4.63;2.58;;;14.00;99.90;;;;;;5033833;28;20135;-73
2023/01/23 12:47:29;;;;;;;7.72;3.25;;;13.90;99.90;;;;;;5062140;28;20052;-72
2023/01/23 12:50:03;;;;;;;7.70;3.90;;;13.80;99.90;;;;;;5070687;28;20072;-73
2023/01/23 12:52:50;;;;;;;2.50;1.60;;;14.10;99.90;;;;;;5055962;28;20068;-74
2023/01/23 12:55:23;;;;;;;;;;;14.10;99.90;;;;;;5071152;28;20061;-72
2023/01/23 12:57:56;;;;;;;9.07;3.60;;;14.20;99.90;;;;;;5054118;28;19928;-72
2023/01/23 13:00:34;;;;;;;5.25;2.28;;;14.40;99.90;;;;;;5053671;28;20057;-72
2023/01/23 13:03:07;;;;;;;5.25;2.70;;;14.50;99.90;;;;;;5037270;28;20048;-73
2023/01/23 13:05:46;;;;;;;6.60;3.30;;;14.40;99.90;;;;;;5070186;28;20079;-73
2023/01/23 13:08:36;;;;;;;4.35;2.90;;;14.20;99.90;;;;;;5036330;28;20098;-73
2023/01/23 13:11:48;;;;;;;5.40;4.18;;;14.30;99.90;;;;;;5068750;28;20040;-72
2023/01/23 13:14:20;;;;;;;4.18;2.55;;;14.20;99.90;;;;;;5052456;28;20056;-73
2023/01/23 13:16:50;;;;;;;10.30;5.50;;;14.30;99.90;;;;;;5066701;28;20041;-71
2023/01/23 13:22:26;;;;;;;11.00;5.90;;;14.10;99.90;;;;;;5068750;28;20045;-74
2023/01/23 13:25:16;;;;;;;2.30;1.30;;;14.10;99.90;;;;;;5101159;28;20689;-72
2023/01/23 13:27:56;;;;;;;3.30;1.48;;;14.10;99.90;;;;;;5068753;28;20041;-73
2023/01/23 13:30:34;;;;;;;2.15;1.20;;;14.10;99.90;;;;;;5067978;28;20116;-73
2023/01/23 13:33:05;;;;;;;2.65;1.10;;;13.80;99.90;;;;;;5043406;28;20059;-73
2023/01/23 13:35:41;;;;;;;4.40;1.83;;;13.50;99.90;;;;;;5060388;28;20064;-72